createdAt,value
2018-09-30T00:00:52.399Z,10.81
2018-09-30T00:03:19.435Z,10.50
2018-09-30T00:05:46.479Z,10.56
2018-09-30T00:08:13.419Z,10.44
2018-09-30T00:10:40.343Z,10.69
2018-09-30T00:13:07.295Z,10.56
2018-09-30T00:15:34.179Z,10.38
2018-09-30T00:18:01.077Z,10.44
2018-09-30T00:20:27.980Z,10.56
2018-09-30T00:22:55.903Z,10.56
2018-09-30T00:25:28.548Z,10.00
2018-09-30T00:27:56.052Z,10.31
2018-09-30T00:30:22.968Z,10.31
2018-09-30T00:32:50.177Z,10.38
2018-09-30T00:35:17.072Z,10.13
2018-09-30T00:37:43.974Z,10.25
2018-09-30T00:40:10.906Z,10.00
2018-09-30T00:42:37.857Z,10.25
2018-09-30T00:45:04.854Z,10.06
2018-09-30T00:47:32.088Z,10.13
2018-09-30T00:49:58.982Z,10.25
2018-09-30T00:52:25.857Z,9.94
2018-09-30T00:54:52.761Z,10.00
2018-09-30T00:57:19.644Z,10.13
2018-09-30T00:59:46.574Z,10.13
2018-09-30T01:02:13.475Z,10.19
2018-09-30T01:04:40.396Z,9.88
2018-09-30T01:07:07.299Z,9.88
2018-09-30T01:09:34.191Z,9.75
2018-09-30T01:12:01.113Z,9.56
2018-09-30T01:14:27.983Z,9.94
2018-09-30T01:16:54.941Z,9.56
2018-09-30T01:19:21.851Z,9.88
2018-09-30T01:21:48.787Z,9.75
2018-09-30T01:24:15.693Z,9.75
2018-09-30T01:26:42.575Z,9.75
2018-09-30T01:29:09.489Z,9.75
2018-09-30T01:31:36.391Z,9.94
2018-09-30T01:34:03.330Z,9.94
2018-09-30T01:36:30.232Z,9.69
2018-09-30T01:38:57.129Z,9.88
2018-09-30T01:41:24.145Z,9.75
2018-09-30T01:43:51.058Z,9.75
2018-09-30T01:46:18.040Z,9.81
2018-09-30T01:53:40.097Z,9.81
2018-09-30T01:56:07.017Z,9.44
2018-09-30T01:58:33.911Z,9.81
2018-09-30T02:01:00.821Z,9.81
2018-09-30T02:03:27.783Z,9.75
2018-09-30T02:05:54.769Z,9.38
2018-09-30T02:08:21.700Z,9.38
2018-09-30T02:10:48.595Z,9.50
2018-09-30T02:13:15.464Z,9.50
2018-09-30T02:15:42.389Z,9.31
2018-09-30T02:18:09.343Z,9.38
2018-09-30T02:20:36.246Z,9.19
2018-09-30T02:23:03.166Z,9.25
2018-09-30T02:25:30.123Z,9.38
2018-09-30T02:27:57.060Z,9.31
2018-09-30T02:35:18.194Z,9.38
2018-09-30T02:37:45.058Z,9.38
2018-09-30T02:40:11.957Z,9.38
2018-09-30T02:42:38.887Z,8.94
2018-09-30T02:45:05.839Z,9.06
2018-09-30T02:47:32.703Z,9.13
2018-09-30T02:49:59.666Z,8.94
2018-09-30T02:52:26.681Z,8.88
2018-09-30T02:54:53.595Z,9.19
2018-09-30T02:57:20.576Z,9.19
2018-09-30T02:59:47.539Z,8.88
2018-09-30T03:02:14.458Z,8.88
2018-09-30T03:04:41.347Z,9.00
2018-09-30T03:07:13.956Z,8.88
2018-09-30T03:09:42.359Z,9.06
2018-09-30T03:12:09.392Z,8.81
2018-09-30T03:14:36.306Z,8.88
2018-09-30T03:17:03.240Z,8.88
2018-09-30T03:19:30.129Z,9.00
2018-09-30T03:21:57.065Z,8.81
2018-09-30T03:24:24.003Z,8.88
2018-09-30T03:26:50.914Z,9.00
2018-09-30T03:29:17.868Z,8.88
2018-09-30T03:31:44.894Z,9.00
2018-09-30T03:34:11.858Z,8.69
2018-09-30T03:36:38.784Z,8.94
2018-09-30T03:39:07.070Z,9.00
2018-09-30T03:41:34.055Z,8.81
2018-09-30T03:44:01.007Z,8.88
2018-09-30T03:46:28.000Z,8.63
2018-09-30T03:48:54.989Z,8.81
2018-09-30T03:51:22.689Z,8.75
2018-09-30T03:53:49.617Z,9.00
2018-09-30T03:56:17.135Z,8.63
2018-09-30T03:58:44.113Z,9.13
2018-09-30T04:01:11.120Z,8.75
2018-09-30T04:03:38.039Z,8.94
2018-09-30T04:06:04.974Z,8.94
2018-09-30T04:08:31.916Z,8.75
2018-09-30T04:10:58.815Z,8.75
2018-09-30T04:13:25.842Z,8.69
2018-09-30T04:15:53.129Z,8.44
2018-09-30T04:18:20.122Z,8.69
2018-09-30T04:20:47.065Z,8.94
2018-09-30T04:23:13.992Z,8.44
2018-09-30T04:25:40.932Z,8.88
2018-09-30T04:28:07.872Z,8.56
2018-09-30T04:30:34.834Z,8.75
2018-09-30T04:33:01.765Z,8.38
2018-09-30T04:35:28.708Z,8.25
2018-09-30T04:37:55.715Z,8.75
2018-09-30T04:40:23.565Z,8.63
2018-09-30T04:42:50.518Z,8.44
2018-09-30T04:45:17.475Z,8.44
2018-09-30T04:47:44.379Z,8.56
2018-09-30T04:50:11.375Z,8.50
2018-09-30T04:52:38.223Z,8.75
2018-09-30T04:55:05.255Z,8.56
2018-09-30T04:57:32.234Z,8.63
2018-09-30T04:59:59.143Z,8.31
2018-09-30T05:02:26.105Z,8.56
2018-09-30T05:04:53.121Z,8.25
2018-09-30T05:07:20.089Z,8.56
2018-09-30T05:09:47.032Z,8.56
2018-09-30T05:12:13.924Z,8.44
2018-09-30T05:14:40.844Z,8.44
2018-09-30T05:17:07.742Z,8.44
2018-09-30T05:19:34.658Z,8.63
2018-09-30T05:22:01.610Z,8.31
2018-09-30T05:24:28.525Z,8.44
2018-09-30T05:26:55.502Z,8.38
2018-09-30T05:29:22.432Z,8.31
2018-09-30T05:31:49.388Z,8.38
2018-09-30T05:34:16.291Z,8.50
2018-09-30T05:36:43.155Z,8.44
2018-09-30T05:39:10.833Z,8.31
2018-09-30T05:41:37.820Z,8.19
2018-09-30T05:44:05.291Z,8.31
2018-09-30T05:46:32.199Z,8.50
2018-09-30T05:48:59.140Z,8.06
2018-09-30T05:51:26.108Z,8.19
2018-09-30T05:53:52.978Z,8.19
2018-09-30T05:56:19.879Z,8.13
2018-09-30T05:58:46.794Z,8.00
2018-09-30T06:01:13.716Z,8.19
2018-09-30T06:03:40.584Z,8.31
2018-09-30T06:06:07.609Z,8.31
2018-09-30T06:08:34.529Z,8.25
2018-09-30T06:11:02.306Z,8.31
2018-09-30T06:14:32.594Z,8.44
2018-09-30T06:16:59.495Z,8.63
2018-09-30T06:19:26.474Z,8.63
2018-09-30T06:21:53.401Z,8.44
2018-09-30T06:24:20.359Z,8.63
2018-09-30T06:26:47.246Z,8.63
2018-09-30T06:29:14.384Z,8.44
2018-09-30T06:31:41.449Z,8.50
2018-09-30T06:34:08.349Z,8.81
2018-09-30T06:36:36.529Z,8.94
2018-09-30T06:39:06.640Z,8.63
2018-09-30T06:41:33.638Z,8.81
2018-09-30T06:44:00.548Z,8.94
2018-09-30T06:46:27.461Z,8.88
2018-09-30T06:48:54.506Z,8.94
2018-09-30T06:51:21.445Z,9.13
2018-09-30T06:53:48.348Z,9.13
2018-09-30T06:56:15.266Z,9.19
2018-09-30T06:58:43.000Z,9.19
2018-09-30T07:01:09.976Z,9.00
2018-09-30T07:03:36.970Z,9.25
2018-09-30T07:06:03.960Z,9.06
2018-09-30T07:08:30.928Z,9.44
2018-09-30T07:10:57.929Z,9.13
2018-09-30T07:13:24.863Z,9.38
2018-09-30T07:15:51.859Z,9.50
2018-09-30T07:18:18.907Z,9.50
2018-09-30T07:20:45.899Z,9.44
2018-09-30T07:23:12.869Z,9.50
2018-09-30T07:25:39.835Z,9.44
2018-09-30T07:28:07.025Z,9.63
2018-09-30T07:30:33.974Z,9.88
2018-09-30T07:33:00.899Z,9.63
2018-09-30T07:40:23.580Z,9.75
2018-09-30T07:42:50.545Z,9.94
2018-09-30T07:45:17.484Z,9.81
2018-09-30T07:47:44.424Z,10.00
2018-09-30T07:50:11.454Z,10.00
2018-09-30T07:52:38.434Z,10.06
2018-09-30T07:55:05.381Z,10.06
2018-09-30T07:57:32.318Z,10.31
2018-09-30T07:59:59.260Z,10.25
2018-09-30T08:02:26.218Z,10.50
2018-09-30T08:04:53.179Z,10.31
2018-09-30T08:07:20.131Z,10.50
2018-09-30T08:09:47.071Z,10.56
2018-09-30T08:12:14.013Z,10.56
2018-09-30T08:14:40.977Z,10.69
2018-09-30T08:17:08.101Z,10.69
2018-09-30T08:19:35.018Z,10.81
2018-09-30T08:22:01.969Z,11.12
2018-09-30T08:24:28.872Z,11.06
2018-09-30T08:26:55.841Z,11.06
2018-09-30T08:29:22.735Z,11.12
2018-09-30T08:31:49.600Z,11.31
2018-09-30T08:34:16.566Z,11.31
2018-09-30T08:36:43.466Z,11.38
2018-09-30T08:39:10.346Z,11.63
2018-09-30T08:41:37.292Z,11.63
2018-09-30T08:44:04.298Z,11.69
2018-09-30T08:46:31.259Z,11.75
2018-09-30T08:48:58.151Z,11.81
2018-09-30T08:51:25.060Z,11.94
2018-09-30T08:53:51.984Z,12.31
2018-09-30T08:56:18.857Z,12.37
2018-09-30T08:58:45.799Z,12.31
2018-09-30T09:01:12.744Z,12.56
2018-09-30T09:03:39.675Z,12.69
2018-09-30T09:06:06.590Z,12.88
2018-09-30T09:08:33.498Z,12.75
2018-09-30T09:11:00.468Z,12.75
2018-09-30T09:13:27.349Z,12.69
2018-09-30T09:15:54.270Z,12.75
2018-09-30T09:18:21.211Z,12.81
2018-09-30T09:20:48.086Z,12.94
2018-09-30T09:23:14.982Z,13.00
2018-09-30T09:25:42.142Z,13.06
2018-09-30T09:28:09.356Z,13.13
2018-09-30T09:30:36.226Z,13.13
2018-09-30T09:33:03.132Z,13.25
2018-09-30T09:35:30.052Z,13.13
2018-09-30T09:37:56.954Z,13.13
2018-09-30T09:40:23.832Z,13.44
2018-09-30T09:42:50.782Z,13.31
2018-09-30T09:45:17.696Z,13.31
2018-09-30T09:47:44.580Z,13.50
2018-09-30T09:50:11.503Z,13.44
2018-09-30T09:52:38.487Z,13.50
2018-09-30T09:55:05.318Z,13.94
2018-09-30T09:57:32.290Z,13.81
2018-09-30T09:59:59.216Z,13.81
2018-09-30T10:02:26.136Z,14.63
2018-09-30T10:04:53.044Z,14.25
2018-09-30T10:07:20.026Z,14.00
2018-09-30T10:09:46.960Z,14.00
2018-09-30T10:12:13.876Z,14.00
2018-09-30T10:14:40.764Z,14.56
2018-09-30T10:17:07.717Z,14.25
2018-09-30T10:19:34.653Z,14.38
2018-09-30T10:22:02.382Z,14.69
2018-09-30T10:24:29.460Z,14.44
2018-09-30T10:26:56.355Z,14.81
2018-09-30T10:29:23.312Z,14.63
2018-09-30T10:31:50.315Z,14.69
2018-09-30T10:34:17.219Z,14.69
2018-09-30T10:36:44.175Z,14.94
2018-09-30T10:39:11.464Z,15.25
2018-09-30T10:41:41.521Z,14.94
2018-09-30T10:44:09.452Z,14.87
2018-09-30T10:46:36.671Z,14.81
2018-09-30T10:49:03.911Z,14.87
2018-09-30T10:51:30.988Z,14.87
2018-09-30T10:53:58.393Z,15.31
2018-09-30T10:56:25.530Z,15.13
2018-09-30T10:58:52.497Z,15.19
2018-09-30T11:01:19.610Z,15.06
2018-09-30T11:03:46.752Z,15.13
2018-09-30T11:06:13.853Z,15.13
2018-09-30T11:08:41.514Z,15.13
2018-09-30T11:11:08.679Z,15.06
2018-09-30T11:13:35.828Z,15.25
2018-09-30T11:16:02.948Z,15.25
2018-09-30T11:18:30.712Z,15.19
2018-09-30T11:20:57.740Z,15.19
2018-09-30T11:23:25.054Z,15.63
2018-09-30T11:25:52.019Z,15.69
2018-09-30T11:28:19.080Z,15.50
2018-09-30T11:30:46.265Z,15.56
2018-09-30T11:33:13.204Z,15.75
2018-09-30T11:38:42.400Z,15.88
2018-09-30T11:41:09.635Z,15.88
2018-09-30T11:43:36.661Z,15.81
2018-09-30T11:46:04.105Z,16.37
2018-09-30T11:48:31.187Z,16.69
2018-09-30T11:50:58.180Z,16.81
2018-09-30T11:53:25.303Z,17.00
2018-09-30T11:55:52.295Z,16.81
2018-09-30T11:58:19.306Z,16.75
2018-09-30T12:00:46.586Z,16.87
2018-09-30T12:03:13.617Z,17.06
2018-09-30T12:05:40.680Z,16.94
2018-09-30T12:08:07.698Z,16.87
2018-09-30T12:10:34.760Z,16.81
2018-09-30T12:13:02.461Z,16.56
2018-09-30T12:15:29.576Z,16.56
2018-09-30T12:17:56.632Z,16.87
2018-09-30T12:20:23.617Z,16.62
2018-09-30T12:22:51.169Z,16.56
2018-09-30T12:25:18.143Z,16.50
2018-09-30T12:27:45.140Z,16.69
2018-09-30T12:30:12.140Z,16.81
2018-09-30T12:32:39.069Z,16.69
2018-09-30T12:35:06.358Z,16.81
2018-09-30T12:37:33.485Z,16.87
2018-09-30T12:40:00.463Z,17.00
2018-09-30T12:42:27.589Z,16.87
2018-09-30T12:44:54.729Z,17.12
2018-09-30T12:47:21.733Z,17.44
2018-09-30T12:49:48.716Z,17.56
2018-09-30T12:52:15.665Z,17.81
2018-09-30T12:54:42.621Z,17.50
2018-09-30T12:57:10.320Z,17.37
2018-09-30T12:59:37.922Z,17.56
2018-09-30T13:02:04.950Z,17.62
2018-09-30T13:04:33.261Z,17.44
2018-09-30T13:07:00.243Z,17.50
2018-09-30T13:09:27.244Z,17.50
2018-09-30T13:11:54.194Z,17.62
2018-09-30T13:14:21.209Z,17.37
2018-09-30T13:16:48.222Z,17.37
2018-09-30T13:19:15.336Z,17.62
2018-09-30T13:21:42.271Z,17.62
2018-09-30T13:24:09.297Z,17.56
2018-09-30T13:26:36.245Z,17.25
2018-09-30T13:29:03.214Z,17.19
2018-09-30T13:31:30.261Z,17.12
2018-09-30T13:33:57.265Z,17.00
2018-09-30T13:36:24.191Z,17.06
2018-09-30T13:38:51.216Z,16.94
2018-09-30T13:41:18.323Z,17.12
2018-09-30T13:43:45.271Z,16.94
2018-09-30T13:46:12.477Z,16.94
2018-09-30T13:48:39.474Z,16.94
2018-09-30T13:51:07.121Z,17.12
2018-09-30T13:53:34.127Z,17.19
2018-09-30T13:56:01.088Z,17.06
2018-09-30T13:58:28.109Z,17.19
2018-09-30T14:00:55.053Z,17.56
2018-09-30T14:03:22.160Z,17.19
2018-09-30T14:05:49.140Z,17.31
2018-09-30T14:08:16.186Z,17.19
2018-09-30T14:10:43.158Z,17.44
2018-09-30T14:13:10.140Z,17.56
2018-09-30T14:15:37.137Z,17.44
2018-09-30T14:18:04.147Z,17.25
2018-09-30T14:20:31.545Z,17.12
2018-09-30T14:22:58.545Z,17.12
2018-09-30T14:25:25.504Z,17.06
2018-09-30T14:27:52.504Z,17.06
2018-09-30T14:30:19.566Z,17.00
2018-09-30T14:32:46.529Z,17.00
2018-09-30T14:35:13.536Z,16.94
2018-09-30T14:37:40.583Z,16.94
2018-09-30T14:40:07.962Z,16.94
2018-09-30T14:42:35.001Z,17.06
2018-09-30T14:45:01.948Z,17.19
2018-09-30T14:47:28.993Z,17.06
2018-09-30T14:49:56.028Z,16.94
2018-09-30T14:52:23.016Z,16.87
2018-09-30T14:54:49.976Z,16.94
2018-09-30T14:57:16.930Z,16.81
2018-09-30T14:59:44.012Z,16.75
2018-09-30T15:02:10.948Z,16.69
2018-09-30T15:04:37.913Z,16.62
2018-09-30T15:07:04.871Z,16.75
2018-09-30T15:09:31.850Z,16.62
2018-09-30T15:11:58.797Z,16.56
2018-09-30T15:14:25.769Z,16.50
2018-09-30T15:21:47.555Z,16.50
2018-09-30T15:24:14.587Z,16.44
2018-09-30T15:26:41.535Z,16.44
2018-09-30T15:29:08.559Z,16.44
2018-09-30T15:31:35.531Z,16.44
2018-09-30T15:34:02.669Z,16.37
2018-09-30T15:36:29.686Z,16.25
2018-09-30T15:38:56.875Z,16.25
2018-09-30T15:41:23.917Z,16.31
2018-09-30T15:43:51.153Z,16.25
2018-09-30T15:46:18.162Z,16.25
2018-09-30T15:48:45.255Z,16.25
2018-09-30T15:51:12.191Z,16.19
2018-09-30T15:53:39.171Z,16.25
2018-09-30T15:56:06.196Z,16.19
2018-09-30T15:58:33.188Z,16.12
2018-09-30T16:01:00.179Z,16.12
2018-09-30T16:03:27.127Z,16.12
2018-09-30T16:05:54.041Z,16.12
2018-09-30T16:08:21.053Z,16.37
2018-09-30T16:10:48.078Z,16.19
2018-09-30T16:13:15.122Z,16.19
2018-09-30T16:15:42.148Z,16.06
2018-09-30T16:18:09.184Z,16.00
2018-09-30T16:20:36.203Z,15.94
2018-09-30T16:23:03.241Z,15.88
2018-09-30T16:25:30.216Z,15.88
2018-09-30T16:27:57.265Z,15.88
2018-09-30T16:30:24.238Z,15.81
2018-09-30T16:32:51.266Z,15.69
2018-09-30T16:35:18.339Z,15.69
2018-09-30T16:37:45.375Z,15.69
2018-09-30T16:40:12.409Z,15.63
2018-09-30T16:42:39.569Z,15.50
2018-09-30T16:45:06.597Z,15.50
2018-09-30T16:47:33.645Z,15.44
2018-09-30T16:50:00.584Z,15.31
2018-09-30T16:52:27.608Z,15.31
2018-09-30T16:54:54.747Z,15.25
2018-09-30T16:57:21.707Z,15.19
2018-09-30T16:59:48.667Z,15.31
2018-09-30T17:02:15.612Z,15.13
2018-09-30T17:04:42.611Z,15.06
2018-09-30T17:07:09.611Z,14.87
2018-09-30T17:09:37.093Z,15.00
2018-09-30T17:12:04.060Z,14.81
2018-09-30T17:14:31.001Z,14.69
2018-09-30T17:16:57.990Z,14.44
2018-09-30T17:19:24.987Z,14.44
2018-09-30T17:21:51.971Z,14.44
2018-09-30T17:24:19.943Z,14.50
2018-09-30T17:26:46.910Z,14.38
2018-09-30T17:29:13.886Z,14.50
2018-09-30T17:31:40.869Z,14.19
2018-09-30T17:34:07.879Z,14.19
2018-09-30T17:36:34.945Z,14.00
2018-09-30T17:39:01.941Z,13.94
2018-09-30T17:41:28.943Z,13.94
2018-09-30T17:43:56.070Z,13.81
2018-09-30T17:46:23.007Z,13.94
2018-09-30T17:48:50.062Z,13.88
2018-09-30T17:56:15.844Z,13.62
2018-09-30T17:58:42.928Z,13.62
2018-09-30T18:01:09.920Z,13.44
2018-09-30T18:03:37.015Z,13.50
2018-09-30T18:06:03.968Z,13.38
2018-09-30T18:08:30.996Z,13.38
2018-09-30T18:10:58.050Z,13.25
2018-09-30T18:13:25.096Z,13.38
2018-09-30T18:15:52.076Z,13.25
2018-09-30T18:18:19.098Z,13.25
2018-09-30T18:20:46.081Z,13.19
2018-09-30T18:23:13.011Z,13.19
2018-09-30T18:25:39.955Z,13.25
2018-09-30T18:28:07.057Z,13.19
2018-09-30T18:30:34.029Z,13.06
2018-09-30T18:33:01.979Z,12.81
2018-09-30T18:35:28.986Z,12.88
2018-09-30T18:37:57.005Z,13.06
2018-09-30T18:40:24.120Z,12.81
2018-09-30T18:42:51.126Z,12.75
2018-09-30T18:45:18.397Z,12.88
2018-09-30T18:47:45.566Z,12.69
2018-09-30T18:50:14.168Z,12.88
2018-09-30T18:52:41.237Z,12.88
2018-09-30T18:55:08.974Z,12.63
2018-09-30T18:57:36.444Z,12.69
2018-09-30T19:00:03.753Z,12.56
2018-09-30T19:02:31.096Z,12.69
2018-09-30T19:04:58.091Z,12.81
2018-09-30T19:07:25.180Z,12.56
2018-09-30T19:09:54.184Z,12.31
2018-09-30T19:12:21.367Z,12.44
2018-09-30T19:14:48.716Z,12.37
2018-09-30T19:17:15.785Z,12.31
2018-09-30T19:19:42.833Z,12.37
2018-09-30T19:22:10.952Z,12.25
2018-09-30T19:24:37.953Z,12.37
2018-09-30T19:27:05.060Z,12.37
2018-09-30T19:29:32.139Z,12.25
2018-09-30T19:31:59.844Z,12.13
2018-09-30T19:34:26.967Z,12.00
2018-09-30T19:36:53.984Z,12.00
2018-09-30T19:39:21.030Z,11.88
2018-09-30T19:41:48.359Z,12.06
2018-09-30T19:44:15.218Z,11.94
2018-09-30T19:46:48.368Z,12.06
2018-09-30T19:49:16.014Z,11.94
2018-09-30T19:51:43.038Z,12.06
2018-09-30T19:54:10.721Z,11.94
2018-09-30T19:56:37.729Z,11.75
2018-09-30T19:59:04.735Z,12.06
2018-09-30T20:01:31.947Z,11.81
2018-09-30T20:03:58.999Z,11.75
2018-09-30T20:06:26.980Z,11.63
2018-09-30T20:08:54.154Z,11.56
2018-09-30T20:11:23.643Z,11.56
2018-09-30T20:13:51.890Z,11.50
2018-09-30T20:16:19.010Z,11.56
2018-09-30T20:18:46.130Z,11.44
2018-09-30T20:21:13.100Z,11.44
2018-09-30T20:23:40.315Z,11.31
2018-09-30T20:26:07.245Z,11.38
2018-09-30T20:28:34.900Z,11.25
2018-09-30T20:31:01.912Z,11.19
2018-09-30T20:33:28.889Z,11.19
2018-09-30T20:35:55.882Z,11.12
2018-09-30T20:38:22.944Z,11.12
2018-09-30T20:40:49.858Z,11.06
2018-09-30T20:43:17.387Z,11.00
2018-09-30T20:45:45.352Z,11.06
2018-09-30T20:48:13.019Z,11.00
2018-09-30T20:50:40.090Z,11.00
2018-09-30T20:53:07.686Z,11.06
2018-09-30T20:55:35.056Z,11.06
2018-09-30T20:58:02.172Z,10.94
2018-09-30T21:00:30.186Z,10.94
2018-09-30T21:02:57.400Z,11.00
2018-09-30T21:06:32.737Z,11.00
2018-09-30T21:08:59.748Z,10.94
2018-09-30T21:11:26.800Z,10.81
2018-09-30T21:13:53.859Z,10.94
2018-09-30T21:16:20.823Z,10.81
2018-09-30T21:18:47.884Z,10.81
2018-09-30T21:21:14.755Z,10.75
2018-09-30T21:23:42.359Z,10.81
2018-09-30T21:26:09.398Z,10.75
2018-09-30T21:28:36.409Z,10.75
2018-09-30T21:31:03.530Z,10.63
2018-09-30T21:33:30.509Z,10.63
2018-09-30T21:35:57.504Z,10.56
2018-09-30T21:38:24.464Z,10.63
2018-09-30T21:40:51.408Z,10.63
2018-09-30T21:43:18.920Z,10.63
2018-09-30T21:45:45.909Z,10.69
2018-09-30T21:48:14.376Z,10.81
2018-09-30T21:50:41.352Z,10.56
2018-09-30T21:53:08.287Z,10.56
2018-09-30T21:55:35.277Z,10.69
2018-09-30T21:58:02.260Z,10.50
2018-09-30T22:00:34.825Z,10.38
2018-09-30T22:03:01.781Z,10.50
2018-09-30T22:05:28.763Z,10.44
2018-09-30T22:07:55.891Z,10.38
2018-09-30T22:10:23.052Z,10.50
2018-09-30T22:12:50.077Z,10.31
2018-09-30T22:15:17.165Z,10.31
2018-09-30T22:17:44.342Z,10.38
2018-09-30T22:20:11.708Z,10.44
2018-09-30T22:22:38.692Z,10.31
2018-09-30T22:25:06.488Z,10.25
2018-09-30T22:27:33.532Z,10.19
2018-09-30T22:30:00.492Z,10.13
2018-09-30T22:32:27.460Z,10.13
2018-09-30T22:34:54.430Z,10.50
2018-09-30T22:37:21.578Z,10.13
2018-09-30T22:39:48.625Z,10.13
2018-09-30T22:42:15.584Z,10.19
2018-09-30T22:44:42.681Z,10.06
2018-09-30T22:47:09.659Z,10.31
2018-09-30T22:49:36.603Z,10.13
2018-09-30T22:52:04.200Z,10.19
2018-09-30T22:54:31.135Z,10.00
2018-09-30T22:56:58.093Z,10.00
2018-09-30T22:59:24.997Z,10.06
2018-09-30T23:01:51.907Z,10.31
2018-09-30T23:04:19.558Z,10.13
2018-09-30T23:06:46.504Z,10.06
2018-09-30T23:09:13.680Z,10.06
2018-09-30T23:11:40.599Z,10.19
2018-09-30T23:14:07.584Z,10.06
2018-09-30T23:16:34.634Z,10.19
2018-09-30T23:19:01.594Z,9.94
2018-09-30T23:21:29.548Z,10.00
2018-09-30T23:23:56.516Z,10.00
2018-09-30T23:26:23.477Z,9.94
2018-09-30T23:28:50.443Z,10.13
2018-09-30T23:31:17.433Z,9.94
2018-09-30T23:33:44.369Z,10.00
2018-09-30T23:36:11.306Z,10.06
2018-09-30T23:38:38.428Z,10.13
2018-09-30T23:41:05.720Z,10.19
2018-09-30T23:43:33.227Z,10.25
2018-09-30T23:46:00.216Z,10.25
2018-09-30T23:48:27.170Z,10.19
2018-09-30T23:50:54.181Z,10.31
2018-09-30T23:53:21.280Z,10.38
2018-09-30T23:55:48.232Z,10.44
2018-09-30T23:58:15.175Z,10.31
